createdAt,value
2018-12-27T00:02:20.582Z,17.33
2018-12-27T00:04:49.751Z,19.03
2018-12-27T00:07:18.604Z,19.70
2018-12-27T00:09:47.304Z,18.70
2018-12-27T00:12:16.000Z,21.20
2018-12-27T00:14:45.368Z,19.57
2018-12-27T00:17:14.348Z,19.93
2018-12-27T00:19:43.056Z,19.17
2018-12-27T00:22:12.177Z,15.20
2018-12-27T00:24:40.829Z,19.07
2018-12-27T00:27:09.984Z,17.80
2018-12-27T00:29:38.668Z,18.80
2018-12-27T00:32:07.689Z,20.17
2018-12-27T00:34:37.110Z,19.77
2018-12-27T00:37:06.184Z,18.73
2018-12-27T00:39:35.221Z,19.10
2018-12-27T00:42:23.528Z,16.97
2018-12-27T00:45:11.540Z,18.47
2018-12-27T00:47:40.648Z,20.67
2018-12-27T00:50:09.963Z,16.80
2018-12-27T00:52:38.982Z,18.13
2018-12-27T00:55:08.064Z,21.80
2018-12-27T00:57:37.092Z,18.80
2018-12-27T01:00:25.141Z,17.77
2018-12-27T01:02:54.317Z,15.57
2018-12-27T01:05:23.348Z,16.57
2018-12-27T01:07:52.149Z,15.57
2018-12-27T01:10:21.461Z,17.37
2018-12-27T01:12:50.577Z,19.70
2018-12-27T01:15:19.881Z,16.93
2018-12-27T01:17:49.131Z,18.20
2018-12-27T01:20:18.161Z,16.80
2018-12-27T01:22:46.957Z,17.43
2018-12-27T01:25:16.057Z,18.07
2018-12-27T01:28:04.364Z,16.50
2018-12-27T01:30:33.388Z,17.37
2018-12-27T01:33:02.455Z,18.07
2018-12-27T01:35:31.536Z,18.70
2018-12-27T01:38:00.333Z,18.97
2018-12-27T01:40:29.651Z,18.30
2018-12-27T01:42:58.993Z,15.87
2018-12-27T01:45:27.836Z,15.77
2018-12-27T01:47:56.628Z,15.80
2018-12-27T01:50:25.687Z,14.70
2018-12-27T01:52:54.535Z,15.00
2018-12-27T01:55:23.569Z,13.97
2018-12-27T01:57:52.370Z,15.17
2018-12-27T02:00:21.680Z,15.10
2018-12-27T02:02:50.761Z,13.87
2018-12-27T02:05:19.565Z,14.77
2018-12-27T02:07:48.604Z,16.13
2018-12-27T02:10:17.457Z,14.93
2018-12-27T02:12:46.728Z,14.27
2018-12-27T02:15:15.805Z,16.13
2018-12-27T02:17:45.105Z,15.17
2018-12-27T02:20:14.141Z,13.17
2018-12-27T02:22:42.937Z,14.67
2018-12-27T02:25:11.793Z,15.03
2018-12-27T02:28:00.265Z,13.03
2018-12-27T02:30:29.254Z,13.33
2018-12-27T02:32:58.281Z,13.73
2018-12-27T02:35:46.330Z,14.30
2018-12-27T02:38:15.133Z,14.90
2018-12-27T02:40:43.932Z,14.27
2018-12-27T02:43:12.771Z,12.67
2018-12-27T02:45:41.580Z,13.87
2018-12-27T02:48:29.872Z,16.03
2018-12-27T02:51:18.117Z,15.03
2018-12-27T02:53:47.206Z,15.23
2018-12-27T02:56:35.520Z,14.63
2018-12-27T02:59:23.532Z,15.37
2018-12-27T03:02:11.597Z,14.90
2018-12-27T03:10:47.177Z,14.47
2018-12-27T03:13:28.437Z,15.33
2018-12-27T03:16:09.412Z,14.27
2018-12-27T03:18:50.023Z,15.70
2018-12-27T03:21:31.254Z,16.07
2018-12-27T03:24:11.610Z,17.13
2018-12-27T03:26:52.733Z,15.10
2018-12-27T03:29:34.308Z,15.00
2018-12-27T03:32:15.474Z,15.27
2018-12-27T03:34:56.340Z,16.57
2018-12-27T03:37:37.053Z,16.10
2018-12-27T03:40:17.924Z,15.60
2018-12-27T03:42:58.757Z,14.27
2018-12-27T03:45:39.465Z,13.30
2018-12-27T03:48:20.162Z,16.33
2018-12-27T03:51:00.942Z,15.23
2018-12-27T03:53:41.768Z,14.83
2018-12-27T03:56:22.470Z,13.57
2018-12-27T03:58:51.584Z,14.40
2018-12-27T04:01:20.385Z,13.37
2018-12-27T04:03:49.188Z,14.23
2018-12-27T04:06:37.601Z,12.73
2018-12-27T04:09:25.593Z,13.23
2018-12-27T04:12:13.906Z,13.50
2018-12-27T04:15:21.103Z,12.37
2018-12-27T04:18:02.347Z,13.90
2018-12-27T04:20:43.493Z,11.20
2018-12-27T04:23:24.087Z,11.67
2018-12-27T04:26:05.141Z,10.83
2018-12-27T04:28:46.359Z,10.80
2018-12-27T04:31:27.218Z,10.53
2018-12-27T04:34:09.610Z,10.90
2018-12-27T04:36:51.301Z,9.53
2018-12-27T04:39:32.652Z,10.10
2018-12-27T04:42:01.929Z,10.43
2018-12-27T04:44:31.042Z,10.07
2018-12-27T04:46:59.738Z,9.73
2018-12-27T04:49:28.424Z,9.40
2018-12-27T04:51:57.322Z,10.30
2018-12-27T04:54:26.029Z,8.73
2018-12-27T04:56:55.182Z,8.80
2018-12-27T04:59:23.822Z,9.80
2018-12-27T05:01:52.465Z,10.07
2018-12-27T05:04:21.154Z,10.47
2018-12-27T05:06:50.020Z,10.10
2018-12-27T05:09:18.920Z,10.00
2018-12-27T05:11:47.609Z,9.53
2018-12-27T05:14:16.441Z,9.37
2018-12-27T05:16:45.101Z,10.17
2018-12-27T05:19:13.741Z,8.70
2018-12-27T05:21:42.814Z,8.63
2018-12-27T05:24:11.673Z,10.30
2018-12-27T05:26:40.541Z,9.83
2018-12-27T05:29:09.489Z,9.10
2018-12-27T05:31:38.365Z,8.73
2018-12-27T05:34:07.000Z,10.07
2018-12-27T05:36:35.922Z,8.80
2018-12-27T05:39:06.212Z,10.53
2018-12-27T05:41:34.849Z,9.20
2018-12-27T05:44:16.030Z,8.87
2018-12-27T05:46:44.944Z,9.20
2018-12-27T05:49:13.856Z,10.77
2018-12-27T05:51:42.501Z,9.77
2018-12-27T05:54:11.389Z,10.30
2018-12-27T05:56:40.081Z,9.83
2018-12-27T05:59:28.014Z,10.23
2018-12-27T06:02:15.968Z,12.43
2018-12-27T06:07:38.946Z,10.23
2018-12-27T06:10:27.145Z,12.27
2018-12-27T06:13:15.325Z,10.73
2018-12-27T06:15:44.181Z,12.17
2018-12-27T06:18:12.821Z,11.77
2018-12-27T06:20:41.705Z,12.10
2018-12-27T06:23:10.637Z,14.30
2018-12-27T06:25:39.285Z,13.63
2018-12-27T06:28:08.183Z,13.77
2018-12-27T06:30:36.869Z,14.23
2018-12-27T06:33:05.517Z,14.17
2018-12-27T06:35:34.388Z,13.90
2018-12-27T06:38:03.083Z,13.40
2018-12-27T06:40:31.965Z,14.50
2018-12-27T06:43:00.601Z,12.70
2018-12-27T06:45:29.769Z,11.67
2018-12-27T06:47:58.789Z,13.27
2018-12-27T06:50:27.961Z,11.40
2018-12-27T06:52:56.661Z,12.50
2018-12-27T06:55:25.301Z,12.83
2018-12-27T06:57:54.404Z,12.10
2018-12-27T07:00:23.336Z,12.27
2018-12-27T07:02:52.206Z,12.23
2018-12-27T07:05:21.135Z,12.43
2018-12-27T07:07:50.005Z,11.27
2018-12-27T07:10:18.871Z,12.30
2018-12-27T07:12:47.569Z,11.93
2018-12-27T07:15:35.504Z,10.70
2018-12-27T07:18:04.217Z,12.53
2018-12-27T07:20:33.437Z,12.37
2018-12-27T07:23:21.360Z,9.80
2018-12-27T07:26:09.342Z,10.10
2018-12-27T07:28:57.333Z,11.20
2018-12-27T07:31:45.310Z,9.70
2018-12-27T07:34:33.462Z,9.60
2018-12-27T07:37:21.453Z,9.87
2018-12-27T07:39:50.604Z,9.40
2018-12-27T07:42:19.549Z,11.30
2018-12-27T07:44:48.661Z,9.90
2018-12-27T07:47:17.340Z,9.47
2018-12-27T07:49:46.280Z,10.17
2018-12-27T07:52:14.924Z,10.23
2018-12-27T07:54:43.868Z,9.43
2018-12-27T07:57:12.516Z,11.83
2018-12-27T07:59:41.164Z,9.07
2018-12-27T08:02:09.869Z,10.70
2018-12-27T08:04:38.742Z,11.20
2018-12-27T08:07:07.394Z,10.50
2018-12-27T08:09:36.305Z,9.30
2018-12-27T08:12:04.962Z,10.33
2018-12-27T08:14:33.857Z,11.90
2018-12-27T08:17:02.764Z,12.13
2018-12-27T08:19:31.701Z,10.20
2018-12-27T08:22:00.881Z,9.70
2018-12-27T08:24:29.753Z,9.17
2018-12-27T08:26:58.620Z,9.77
2018-12-27T08:29:27.313Z,12.33
2018-12-27T08:31:56.184Z,8.43
2018-12-27T08:34:24.829Z,10.60
2018-12-27T08:36:53.515Z,9.07
2018-12-27T08:39:22.549Z,6.63
2018-12-27T08:41:51.413Z,9.43
2018-12-27T08:44:20.061Z,8.40
2018-12-27T08:46:49.164Z,10.03
2018-12-27T08:49:18.036Z,8.63
2018-12-27T08:51:46.905Z,7.97
2018-12-27T08:54:15.593Z,10.07
2018-12-27T08:56:44.466Z,8.40
2018-12-27T08:59:13.089Z,9.43
2018-12-27T09:01:41.780Z,9.40
2018-12-27T09:04:10.653Z,8.53
2018-12-27T09:06:39.288Z,10.27
2018-12-27T09:09:08.626Z,10.53
2018-12-27T09:11:37.261Z,8.53
2018-12-27T09:14:05.900Z,10.07
2018-12-27T09:16:34.596Z,9.93
2018-12-27T09:19:03.403Z,10.77
2018-12-27T09:21:32.264Z,11.57
2018-12-27T09:24:00.974Z,12.13
2018-12-27T09:26:29.873Z,11.97
2018-12-27T09:28:58.510Z,11.60
2018-12-27T09:31:27.488Z,10.57
2018-12-27T09:33:56.240Z,12.53
2018-12-27T09:36:25.027Z,11.87
2018-12-27T09:39:13.916Z,11.73
2018-12-27T09:41:42.552Z,11.63
2018-12-27T09:44:11.197Z,12.53
2018-12-27T09:46:40.325Z,10.70
2018-12-27T09:49:09.005Z,12.10
2018-12-27T09:51:37.693Z,13.27
2018-12-27T09:54:25.753Z,12.37
2018-12-27T09:57:13.704Z,12.47
2018-12-27T09:59:42.388Z,13.17
2018-12-27T10:02:30.608Z,11.63
2018-12-27T10:05:18.776Z,12.07
2018-12-27T10:08:06.749Z,12.67
2018-12-27T10:10:54.669Z,12.10
2018-12-27T10:13:23.357Z,11.37
2018-12-27T10:15:52.235Z,12.43
2018-12-27T10:18:40.512Z,13.13
2018-12-27T10:21:21.575Z,14.40
2018-12-27T10:23:50.420Z,13.50
2018-12-27T10:26:19.075Z,13.17
2018-12-27T10:29:07.171Z,14.40
2018-12-27T10:31:35.809Z,14.20
2018-12-27T10:36:58.326Z,11.77
2018-12-27T10:39:26.972Z,14.13
2018-12-27T10:41:56.081Z,14.50
2018-12-27T10:44:25.008Z,13.40
2018-12-27T10:46:53.905Z,13.93
2018-12-27T10:49:22.542Z,13.83
2018-12-27T10:51:52.456Z,15.23
2018-12-27T10:54:21.111Z,14.33
2018-12-27T10:56:50.269Z,16.00
2018-12-27T10:59:19.208Z,13.17
2018-12-27T11:01:48.084Z,14.17
2018-12-27T11:04:17.209Z,14.90
2018-12-27T11:06:46.268Z,19.90
2018-12-27T11:09:14.928Z,16.50
2018-12-27T11:11:43.792Z,14.60
2018-12-27T11:14:12.501Z,14.80
2018-12-27T11:16:41.140Z,13.60
2018-12-27T11:19:10.009Z,15.80
2018-12-27T11:21:38.769Z,13.87
2018-12-27T11:24:26.698Z,14.47
2018-12-27T11:26:55.394Z,13.50
2018-12-27T11:29:24.033Z,12.37
2018-12-27T11:31:52.681Z,13.40
2018-12-27T11:34:40.929Z,11.87
2018-12-27T11:37:28.845Z,13.03
2018-12-27T11:39:57.537Z,14.00
2018-12-27T11:42:26.402Z,13.50
2018-12-27T11:44:55.492Z,13.80
2018-12-27T11:47:24.182Z,12.20
2018-12-27T11:50:12.104Z,15.90
2018-12-27T11:53:00.090Z,13.50
2018-12-27T11:55:48.477Z,12.03
2018-12-27T11:58:36.701Z,12.93
2018-12-27T12:01:05.397Z,13.70
2018-12-27T12:03:53.621Z,15.10
2018-12-27T12:06:22.615Z,11.80
2018-12-27T12:08:51.281Z,12.10
2018-12-27T12:11:39.480Z,14.10
2018-12-27T12:14:08.529Z,15.27
2018-12-27T12:16:37.406Z,13.53
2018-12-27T12:19:06.041Z,13.80
2018-12-27T12:21:34.741Z,13.10
2018-12-27T12:24:03.608Z,12.60
2018-12-27T12:26:32.957Z,12.43
2018-12-27T12:29:01.648Z,12.43
2018-12-27T12:31:30.296Z,14.00
2018-12-27T12:33:58.938Z,13.37
2018-12-27T12:36:27.629Z,12.83
2018-12-27T12:38:56.268Z,13.63
2018-12-27T12:41:44.236Z,13.73
2018-12-27T12:44:13.673Z,13.83
2018-12-27T12:46:42.533Z,14.80
2018-12-27T12:49:30.745Z,13.37
2018-12-27T12:52:18.664Z,14.00
2018-12-27T12:54:47.376Z,14.23
2018-12-27T12:57:16.245Z,13.60
2018-12-27T13:00:04.725Z,13.13
2018-12-27T13:02:33.593Z,11.97
2018-12-27T13:05:02.546Z,13.93
2018-12-27T13:07:50.522Z,12.80
2018-12-27T13:10:38.440Z,13.10
2018-12-27T13:13:26.413Z,11.07
2018-12-27T13:16:07.557Z,13.00
2018-12-27T13:18:48.532Z,11.00
2018-12-27T13:21:29.090Z,12.03
2018-12-27T13:24:10.096Z,12.13
2018-12-27T13:26:50.918Z,12.10
2018-12-27T13:29:19.897Z,12.30
2018-12-27T13:32:08.046Z,11.33
2018-12-27T13:34:56.025Z,12.80
2018-12-27T13:37:24.673Z,11.77
2018-12-27T13:40:12.657Z,14.30
2018-12-27T13:42:41.309Z,12.87
2018-12-27T13:45:09.953Z,11.13
2018-12-27T13:47:58.069Z,11.53
2018-12-27T13:50:45.992Z,11.57
2018-12-27T13:53:33.961Z,11.80
2018-12-27T13:56:22.200Z,11.23
2018-12-27T13:58:51.038Z,11.50
2018-12-27T14:01:19.668Z,10.37
2018-12-27T14:03:48.312Z,12.70
2018-12-27T14:06:17.005Z,10.40
2018-12-27T14:08:45.653Z,12.20
2018-12-27T14:11:14.657Z,10.50
2018-12-27T14:13:43.299Z,9.73
2018-12-27T14:16:11.948Z,13.13
2018-12-27T14:18:40.652Z,11.50
2018-12-27T14:21:09.302Z,11.17
2018-12-27T14:23:38.413Z,10.60
2018-12-27T14:26:07.120Z,11.40
2018-12-27T14:28:36.008Z,11.10
2018-12-27T14:31:23.977Z,12.13
2018-12-27T14:33:52.621Z,11.20
2018-12-27T14:36:21.565Z,10.53
2018-12-27T14:38:50.541Z,10.27
2018-12-27T14:41:19.404Z,10.60
2018-12-27T14:43:48.055Z,10.00
2018-12-27T14:46:16.744Z,9.70
2018-12-27T14:48:45.614Z,11.70
2018-12-27T14:51:14.249Z,10.53
2018-12-27T14:53:43.312Z,10.63
2018-12-27T14:56:12.439Z,11.90
2018-12-27T14:58:41.310Z,10.40
2018-12-27T15:01:10.220Z,11.23
2018-12-27T15:03:39.228Z,10.07
2018-12-27T15:06:07.868Z,9.80
2018-12-27T15:08:36.784Z,9.27
2018-12-27T15:11:05.435Z,11.00
2018-12-27T15:13:53.409Z,9.87
2018-12-27T15:16:22.524Z,11.40
2018-12-27T15:18:51.392Z,11.93
2018-12-27T15:21:20.084Z,10.97
2018-12-27T15:23:48.796Z,12.27
2018-12-27T15:26:17.685Z,10.80
2018-12-27T15:28:46.810Z,11.83
2018-12-27T15:31:15.953Z,10.93
2018-12-27T15:33:44.869Z,11.03
2018-12-27T15:36:13.509Z,10.90
2018-12-27T15:38:42.421Z,11.10
2018-12-27T15:41:11.569Z,10.83
2018-12-27T15:43:40.212Z,10.30
2018-12-27T15:46:09.175Z,13.07
2018-12-27T15:48:38.102Z,11.77
2018-12-27T15:51:06.821Z,12.03
2018-12-27T15:53:35.709Z,13.10
2018-12-27T15:56:04.488Z,14.40
2018-12-27T15:58:33.328Z,14.70
2018-12-27T16:01:02.508Z,12.60
2018-12-27T16:03:31.608Z,13.17
2018-12-27T16:06:00.601Z,13.40
2018-12-27T16:08:29.701Z,13.87
2018-12-27T16:10:58.600Z,11.53
2018-12-27T16:13:28.022Z,13.50
2018-12-27T16:15:56.907Z,12.83
2018-12-27T16:18:25.805Z,12.10
2018-12-27T16:20:54.884Z,11.57
2018-12-27T16:23:24.001Z,10.60
2018-12-27T16:25:52.879Z,11.63
2018-12-27T16:28:21.829Z,10.70
2018-12-27T16:30:50.701Z,11.40
2018-12-27T16:33:19.340Z,13.30
2018-12-27T16:35:48.321Z,11.63
2018-12-27T16:38:17.197Z,11.90
2018-12-27T16:41:05.187Z,13.77
2018-12-27T16:43:34.420Z,12.00
2018-12-27T16:46:03.145Z,11.03
2018-12-27T16:48:32.326Z,12.43
2018-12-27T16:51:20.557Z,12.50
2018-12-27T16:54:08.760Z,12.90
2018-12-27T16:56:56.707Z,12.40
2018-12-27T16:59:25.717Z,10.57
2018-12-27T17:02:13.687Z,11.50
2018-12-27T17:04:54.673Z,12.63
2018-12-27T17:07:23.865Z,10.43
2018-12-27T17:09:53.207Z,10.93
2018-12-27T17:12:22.501Z,12.93
2018-12-27T17:14:51.385Z,10.57
2018-12-27T17:17:20.263Z,10.50
2018-12-27T17:19:48.970Z,11.43
2018-12-27T17:22:18.321Z,11.07
2018-12-27T17:24:47.200Z,10.57
2018-12-27T17:27:16.125Z,10.57
2018-12-27T17:29:45.249Z,11.60
2018-12-27T17:32:14.118Z,11.30
2018-12-27T17:34:43.289Z,9.77
2018-12-27T17:37:12.163Z,10.17
2018-12-27T17:39:41.077Z,9.57
2018-12-27T17:42:09.966Z,9.30
2018-12-27T17:44:38.825Z,9.97
2018-12-27T17:47:07.766Z,11.37
2018-12-27T17:49:36.869Z,10.77
2018-12-27T17:52:05.517Z,10.07
2018-12-27T17:54:34.912Z,10.83
2018-12-27T17:57:03.557Z,9.67
2018-12-27T17:59:32.421Z,11.10
2018-12-27T18:02:01.390Z,9.40
2018-12-27T18:04:30.325Z,12.67
2018-12-27T18:06:59.092Z,12.70
2018-12-27T18:09:28.178Z,9.53
2018-12-27T18:11:57.347Z,11.23
2018-12-27T18:14:26.215Z,10.17
2018-12-27T18:16:55.077Z,10.57
2018-12-27T18:19:24.022Z,12.03
2018-12-27T18:21:52.917Z,10.10
2018-12-27T18:24:21.784Z,10.13
2018-12-27T18:26:50.717Z,10.40
2018-12-27T18:29:19.588Z,11.53
2018-12-27T18:31:48.454Z,9.53
2018-12-27T18:34:17.624Z,10.30
2018-12-27T18:36:46.501Z,10.27
2018-12-27T18:39:15.150Z,12.70
2018-12-27T18:41:44.334Z,11.77
2018-12-27T18:44:13.042Z,10.43
2018-12-27T18:46:42.163Z,10.17
2018-12-27T18:49:11.271Z,11.00
2018-12-27T18:51:40.528Z,10.13
2018-12-27T18:54:28.563Z,10.70
2018-12-27T18:56:57.608Z,11.40
2018-12-27T18:59:26.799Z,9.50
2018-12-27T19:01:55.925Z,11.00
2018-12-27T19:04:25.133Z,9.73
2018-12-27T19:06:54.604Z,10.53
2018-12-27T19:09:23.859Z,11.17
2018-12-27T19:12:31.091Z,10.40
2018-12-27T19:15:21.025Z,9.50
2018-12-27T19:18:14.156Z,10.30
2018-12-27T19:21:21.692Z,11.27
2018-12-27T19:24:09.665Z,11.57
2018-12-27T19:26:57.589Z,9.50
2018-12-27T19:29:45.812Z,10.70
2018-12-27T19:32:34.089Z,11.23
2018-12-27T19:35:22.061Z,12.40
2018-12-27T19:38:10.255Z,10.53
2018-12-27T19:43:32.568Z,10.57
2018-12-27T19:46:01.497Z,9.37
2018-12-27T19:48:30.143Z,11.60
2018-12-27T19:51:18.593Z,12.30
2018-12-27T19:54:06.778Z,10.53
2018-12-27T19:56:54.762Z,12.23
2018-12-27T19:59:42.917Z,11.27
2018-12-27T20:02:31.120Z,10.47
2018-12-27T20:05:00.232Z,11.63
2018-12-27T20:07:48.214Z,11.10
2018-12-27T20:10:28.700Z,10.00
2018-12-27T20:13:09.612Z,10.43
2018-12-27T20:15:38.556Z,11.50
2018-12-27T20:18:27.016Z,10.83
2018-12-27T20:21:15.004Z,12.83
2018-12-27T20:24:03.411Z,11.50
2018-12-27T20:29:25.518Z,11.07
2018-12-27T20:32:13.505Z,11.47
2018-12-27T20:35:01.666Z,13.03
2018-12-27T20:37:49.896Z,10.40
2018-12-27T20:40:38.057Z,11.10
2018-12-27T20:43:26.283Z,9.60
2018-12-27T20:46:14.245Z,11.93
2018-12-27T20:49:02.173Z,12.40
2018-12-27T20:51:50.457Z,12.70
2018-12-27T20:54:19.331Z,12.57
2018-12-27T20:57:07.607Z,13.30
2018-12-27T20:59:55.521Z,12.47
2018-12-27T21:02:43.509Z,11.43
2018-12-27T21:05:31.450Z,12.87
2018-12-27T21:08:14.283Z,11.03
2018-12-27T21:10:55.593Z,12.37
2018-12-27T21:13:36.505Z,12.33
2018-12-27T21:16:17.488Z,12.20
2018-12-27T21:18:58.542Z,11.03
2018-12-27T21:21:39.558Z,12.20
2018-12-27T21:24:19.895Z,13.40
2018-12-27T21:27:00.544Z,11.47
2018-12-27T21:29:41.872Z,11.37
2018-12-27T21:32:23.002Z,14.10
2018-12-27T21:35:03.628Z,12.27
2018-12-27T21:37:44.485Z,13.03
2018-12-27T21:40:25.457Z,12.30
2018-12-27T21:43:05.991Z,9.17
2018-12-27T21:45:46.553Z,12.50
2018-12-27T21:48:27.469Z,11.63
2018-12-27T21:51:08.368Z,12.23
2018-12-27T21:53:49.701Z,10.00
2018-12-27T21:56:30.965Z,10.90
2018-12-27T21:59:12.188Z,11.80
2018-12-27T22:01:52.949Z,11.57
2018-12-27T22:04:33.990Z,11.73
2018-12-27T22:07:14.847Z,11.03
2018-12-27T22:09:55.820Z,10.40
2018-12-27T22:12:37.002Z,9.83
2018-12-27T22:15:18.090Z,9.10
2018-12-27T22:17:59.005Z,9.37
2018-12-27T22:20:39.473Z,10.77
2018-12-27T22:23:20.141Z,10.10
2018-12-27T22:26:01.056Z,11.27
2018-12-27T22:28:42.292Z,11.50
2018-12-27T22:31:23.713Z,10.43
2018-12-27T22:34:04.772Z,9.17
2018-12-27T22:36:44.413Z,9.93
2018-12-27T22:39:32.629Z,11.27
2018-12-27T22:42:20.801Z,11.73
2018-12-27T22:47:43.486Z,10.17
2018-12-27T22:50:12.742Z,10.00
2018-12-27T22:52:41.931Z,9.37
2018-12-27T22:55:10.572Z,11.33
2018-12-27T22:57:58.565Z,12.23
2018-12-27T23:00:46.653Z,10.07
2018-12-27T23:03:23.613Z,10.97
2018-12-27T23:05:52.488Z,10.73
2018-12-27T23:08:21.282Z,10.20
2018-12-27T23:10:50.318Z,10.50
2018-12-27T23:13:38.500Z,11.17
2018-12-27T23:18:43.169Z,10.30
2018-12-27T23:21:12.040Z,10.60
2018-12-27T23:23:40.940Z,11.67
2018-12-27T23:26:10.092Z,10.57
2018-12-27T23:28:39.216Z,11.13
2018-12-27T23:31:08.385Z,10.93
2018-12-27T23:33:37.347Z,10.30
2018-12-27T23:36:06.243Z,10.47
2018-12-27T23:38:35.412Z,10.57
2018-12-27T23:41:04.133Z,10.20
2018-12-27T23:43:32.791Z,11.43
2018-12-27T23:46:01.977Z,12.47
2018-12-27T23:48:31.062Z,11.10
2018-12-27T23:50:59.977Z,11.30
2018-12-27T23:53:28.848Z,8.87
2018-12-27T23:55:57.552Z,11.40
2018-12-27T23:58:26.194Z,11.60
